Silver, Texas
Current Conditions -  °F | °C
As of 2:35 PM on Monday 24 Nov 2014 (Local Time) from KSWW Reporting Station
Clear Clear  
Wind Chill: 56°   Ceiling: Unl
Heat Index: 56°   Visibility: 10mi
Dew Point: 21°   Wind: 10mph
Humidity: 25%   Direction: 200°SSW
Pressure: 30.07"   Gusts: 16mph
Location:  32.07°N, 100.68°W
Report Text: KSWW 242035Z AUTO 20009G14KT 10SM CLR 14/M06 A3007 RMK AO2 T01361061
Loading
Personal Weather Stations






























Interactive Weather Map New forecast layout! Learn more

10-Day Weather Forecast

Advertisements
Track Severe Weather on mobile